x

Port Aransas, Tx (ptat2) Weather Station

2:00am - Tue 24th Apr 2018 All times are CDT. -5 hours from GMT.

  • Wind
    13mph, 13mph gusts
  • Sea Temp 73°f
  • Air Temp 71°f
  • Sea Pressure 1016.3mb
  • Port Aransas, Tx
  • Port Aransas, Tx

More Historic Weather Station data

Upgrade to MSW Pro to gain access to the past 30 days of data for over 8000 Wavebouys and Weather Stations around the globe.

Join

Comparision Forecast

View Surf forecast
   
Tue 04/24 2:00am 13 13 mph 1016.3mb 73f 71f
12:00am 16 17 mph 1017.1mb 73f 71f
Mon 04/23 11:00pm 17 20 mph 1017.3mb 73f 71f
10:00pm 17 18 mph 1017.1mb 73f 71f
9:00pm 15 18 mph 1016.7mb 73f 71f
8:00pm 16 18 mph 1016mb 73f 71f
7:00pm 15 16 mph 1015.5mb 73f 71f
3:00pm 10 11 mph 1017.9mb 73f 70f
10:00am 13 14 mph 1019.1mb 71f 69f
9:00am 11 13 mph 1019.3mb 70f 69f
8:00am 13 15 mph 1018.9mb 70f 69f
1:00am 14 16 mph 1016.8mb 71f 71f
12:00am 16 17 mph 1016.7mb 71f 71f
Sun 04/22 11:00pm 21 22 mph 1016.1mb 72f 71f
8:00pm 10 11 mph 1015.3mb 72f 72f
7:00pm 10 11 mph 1014.8mb 72f 73f
6:00pm 10 10 mph 1014.7mb 72f 73f
5:00pm 11 13 mph 1014.8mb 72f 75f
4:00pm 15 17 mph 1014.9mb 72f 75f
3:00pm 16 20 mph 1015.6mb 72f 73f
2:00pm 17 20 mph 1016.5mb 72f 71f
1:00pm 20 22 mph 1017mb 72f 70f
12:00pm 16 18 mph 1018mb 72f 68f
11:00am 18 23 mph 1018mb 71f 66f
10:00am 18 21 mph 1017.5mb 71f 65f
9:00am 13 16 mph 1017.7mb 71f 64f
8:00am 15 17 mph 1017.1mb 71f 65f
7:00am 17 20 mph 1016mb 71f 66f
6:00am 14 17 mph 1015.1mb 71f 70f
5:00am 6 8 mph 1014.3mb 72f 71f
4:00am 6 7 mph 1013.8mb 72f 71f
3:00am 11 11 mph 1013mb 72f 72f
2:00am 13 14 mph 1013.3mb 72f 73f
1:00am 14 15 mph 1013.4mb 72f 73f
12:00am 18 22 mph 1012.6mb 72f 72f
Sat 04/21 11:00pm 16 17 mph 1012.9mb 71f 72f
10:00pm 16 20 mph 1012.4mb 71f 73f
9:00pm 16 20 mph 1011.9mb 71f 73f
8:00pm 20 22 mph 1011mb 71f 73f
7:00pm 21 23 mph 1010.6mb 72f 73f
6:00pm 22 24 mph 1010.7mb 71f 73f
5:00pm 21 23 mph 1011mb 71f 73f
4:00pm 21 23 mph 1011.7mb 71f 73f
3:00pm 23 25 mph 1011.7mb 71f 73f
2:00pm 22 23 mph 1012.4mb 71f 73f
1:00pm 14 15 mph 1013.9mb 71f 73f
12:00pm 18 20 mph 1014.2mb 71f 73f
11:00am 18 22 mph 1013.8mb 70f 72f
10:00am 20 24 mph 1013.5mb 70f 72f
9:00am 11 13 mph 1015.2mb 70f 72f
8:00am 14 15 mph 1014.4mb 70f 72f
7:00am 17 18 mph 1013.1mb 70f 72f
6:00am 15 16 mph 1012.9mb 70f 72f
5:00am 14 16 mph 1013mb 70f 71f
4:00am 14 15 mph 1013.4mb 70f 71f
3:00am 16 18 mph 1014.1mb 70f 71f
2:00am 16 18 mph 1014.8mb 70f 71f
1:00am 15 17 mph 1015.6mb 70f 71f
12:00am 18 20 mph 1016.4mb 71f 71f
Fri 04/20 11:00pm 18 21 mph 1017.2mb 71f 71f
10:00pm 21 23 mph 1016.8mb 71f 71f
9:00pm 23 25 mph 1016.4mb 71f 71f
8:00pm 23 25 mph 1016.6mb 71f 70f
7:00pm 21 23 mph 1017.3mb 71f 70f
6:00pm 17 21 mph 1018.1mb 71f 70f
5:00pm 20 22 mph 1018mb 71f 70f
4:00pm 24 26 mph 1018.3mb 71f 69f
3:00pm 23 29 mph 1019.1mb 71f 70f
2:00pm 25 28 mph 1019.9mb 71f 69f
1:00pm 23 25 mph 1020.7mb 70f 70f
12:00pm 21 22 mph 1021.8mb 70f 70f
11:00am 20 22 mph 1022mb 70f 70f
10:00am 18 21 mph 1021.5mb 70f 70f
9:00am 23 25 mph 1020.9mb 70f 69f